Terminal Aerodrome Forecast
Issued by NWS

Home | Current Version | Previous Version | Text Only | Print | Product List | Glossary On
Versions: 1 2 3 4 5 6 7 8 9 10 11 12 13 14
000
FTAK31 PANC 072330
TAFAAQ
TAF
PAAQ 072330Z 0800/0824 36006KT P6SM VCSH BKN050
     FM080600 03010KT P6SM BKN070
     FM082100 01010KT P6SM FEW070=

USA.gov is the U.S. government's official web portal to all federal, state and local government web resources and services.